sensor_id;sensor_type;location;lat;lon;timestamp;pressure;altitude;pressure_sealevel;temperature;humidity
72061;BME280;59925;52.136;5.420;2023-08-31T00:02:23;100919.03;;;10.80;100.00
72061;BME280;59925;52.136;5.420;2023-08-31T00:04:53;100920.09;;;10.79;100.00
72061;BME280;59925;52.136;5.420;2023-08-31T00:07:21;100920.91;;;10.80;100.00
72061;BME280;59925;52.136;5.420;2023-08-31T00:09:48;100914.22;;;10.77;100.00
72061;BME280;59925;52.136;5.420;2023-08-31T00:12:14;100915.81;;;10.78;100.00
72061;BME280;59925;52.136;5.420;2023-08-31T00:14:41;100918.22;;;10.80;100.00
72061;BME280;59925;52.136;5.420;2023-08-31T00:17:08;100908.84;;;10.82;100.00
72061;BME280;59925;52.136;5.420;2023-08-31T00:19:35;100909.41;;;10.84;100.00
72061;BME280;59925;52.136;5.420;2023-08-31T00:22:01;100912.06;;;10.84;100.00
72061;BME280;59925;52.136;5.420;2023-08-31T00:24:28;100906.44;;;10.86;100.00
72061;BME280;59925;52.136;5.420;2023-08-31T00:26:58;100908.28;;;10.85;100.00
72061;BME280;59925;52.136;5.420;2023-08-31T00:29:24;100918.50;;;10.88;100.00
72061;BME280;59925;52.136;5.420;2023-08-31T00:31:51;100907.50;;;10.90;100.00
72061;BME280;59925;52.136;5.420;2023-08-31T00:34:19;100908.84;;;10.93;100.00
72061;BME280;59925;52.136;5.420;2023-08-31T00:36:46;100914.75;;;10.95;100.00
72061;BME280;59925;52.136;5.420;2023-08-31T00:39:13;100912.59;;;10.97;100.00
72061;BME280;59925;52.136;5.420;2023-08-31T00:41:39;100921.16;;;10.99;100.00
72061;BME280;59925;52.136;5.420;2023-08-31T00:44:06;100912.84;;;11.00;100.00
72061;BME280;59925;52.136;5.420;2023-08-31T00:46:34;100922.22;;;11.03;100.00
72061;BME280;59925;52.136;5.420;2023-08-31T00:49:02;100923.56;;;11.06;100.00
72061;BME280;59925;52.136;5.420;2023-08-31T00:51:30;100921.97;;;11.10;100.00
72061;BME280;59925;52.136;5.420;2023-08-31T00:53:57;100917.13;;;11.12;100.00
72061;BME280;59925;52.136;5.420;2023-08-31T00:56:25;100918.47;;;11.14;100.00
72061;BME280;59925;52.136;5.420;2023-08-31T00:58:55;100905.56;;;11.16;100.00
72061;BME280;59925;52.136;5.420;2023-08-31T01:04:17;100907.44;;;11.21;100.00
72061;BME280;59925;52.136;5.420;2023-08-31T01:07:04;100908.25;;;11.22;100.00
72061;BME280;59925;52.136;5.420;2023-08-31T01:09:43;100904.75;;;11.21;100.00
72061;BME280;59925;52.136;5.420;2023-08-31T01:12:18;100910.94;;;11.22;100.00
72061;BME280;59925;52.136;5.420;2023-08-31T01:15:04;100911.47;;;11.24;100.00
72061;BME280;59925;52.136;5.420;2023-08-31T01:17:38;100906.13;;;11.24;100.00
72061;BME280;59925;52.136;5.420;2023-08-31T01:20:09;100903.44;;;11.24;100.00
72061;BME280;59925;52.136;5.420;2023-08-31T01:22:48;100906.91;;;11.24;100.00
72061;BME280;59925;52.136;5.420;2023-08-31T01:25:17;100905.84;;;11.25;100.00
72061;BME280;59925;52.136;5.420;2023-08-31T01:27:44;100910.91;;;11.27;100.00
72061;BME280;59925;52.136;5.420;2023-08-31T01:30:11;100907.16;;;11.28;100.00
72061;BME280;59925;52.136;5.420;2023-08-31T01:32:43;100906.38;;;11.27;100.00
72061;BME280;59925;52.136;5.420;2023-08-31T01:35:14;100902.63;;;11.28;100.00
72061;BME280;59925;52.136;5.420;2023-08-31T01:37:58;100904.22;;;11.29;100.00
72061;BME280;59925;52.136;5.420;2023-08-31T01:40:31;100906.91;;;11.29;100.00
72061;BME280;59925;52.136;5.420;2023-08-31T01:43:04;100904.72;;;11.31;100.00
72061;BME280;59925;52.136;5.420;2023-08-31T01:45:33;100913.59;;;11.32;100.00
72061;BME280;59925;52.136;5.420;2023-08-31T01:48:01;100927.28;;;11.35;100.00
72061;BME280;59925;52.136;5.420;2023-08-31T01:50:28;100938.25;;;11.39;100.00
72061;BME280;59925;52.136;5.420;2023-08-31T01:52:54;100950.63;;;11.40;100.00
72061;BME280;59925;52.136;5.420;2023-08-31T01:55:22;100940.16;;;11.44;100.00
72061;BME280;59925;52.136;5.420;2023-08-31T01:57:49;100939.34;;;11.48;100.00
72061;BME280;59925;52.136;5.420;2023-08-31T02:00:16;100946.28;;;11.55;100.00
72061;BME280;59925;52.136;5.420;2023-08-31T02:02:43;100937.69;;;11.58;100.00
72061;BME280;59925;52.136;5.420;2023-08-31T02:05:10;100940.63;;;11.61;100.00
72061;BME280;59925;52.136;5.420;2023-08-31T02:07:36;100946.00;;;11.67;100.00
72061;BME280;59925;52.136;5.420;2023-08-31T02:10:04;100938.72;;;11.72;100.00
72061;BME280;59925;52.136;5.420;2023-08-31T02:12:33;100931.72;;;11.76;100.00
72061;BME280;59925;52.136;5.420;2023-08-31T02:14:59;100936.53;;;11.79;100.00
72061;BME280;59925;52.136;5.420;2023-08-31T02:17:26;100937.06;;;11.81;100.00
72061;BME280;59925;52.136;5.420;2023-08-31T02:19:52;100946.19;;;11.86;100.00
72061;BME280;59925;52.136;5.420;2023-08-31T02:22:19;100942.94;;;11.89;100.00
72061;BME280;59925;52.136;5.420;2023-08-31T02:24:45;100937.00;;;11.92;100.00
72061;BME280;59925;52.136;5.420;2023-08-31T02:27:12;100940.50;;;11.92;100.00
72061;BME280;59925;52.136;5.420;2023-08-31T02:29:39;100956.34;;;11.94;100.00
72061;BME280;59925;52.136;5.420;2023-08-31T02:32:06;100948.31;;;11.99;100.00
72061;BME280;59925;52.136;5.420;2023-08-31T02:34:32;100945.06;;;12.02;100.00
72061;BME280;59925;52.136;5.420;2023-08-31T02:36:59;100940.78;;;12.01;100.00
72061;BME280;59925;52.136;5.420;2023-08-31T02:39:25;100939.97;;;12.01;100.00
72061;BME280;59925;52.136;5.420;2023-08-31T02:41:52;100944.00;;;12.03;100.00
72061;BME280;59925;52.136;5.420;2023-08-31T02:44:18;100937.00;;;12.02;100.00
72061;BME280;59925;52.136;5.420;2023-08-31T02:46:45;100939.16;;;12.00;100.00
72061;BME280;59925;52.136;5.420;2023-08-31T02:49:12;100939.97;;;12.01;100.00
72061;BME280;59925;52.136;5.420;2023-08-31T02:51:38;100938.06;;;11.96;100.00
72061;BME280;59925;52.136;5.420;2023-08-31T02:54:05;100928.69;;;11.93;100.00
72061;BME280;59925;52.136;5.420;2023-08-31T02:56:32;100925.19;;;11.93;100.00
72061;BME280;59925;52.136;5.420;2023-08-31T02:58:58;100927.38;;;11.91;100.00
72061;BME280;59925;52.136;5.420;2023-08-31T03:01:25;100924.41;;;11.87;100.00
72061;BME280;59925;52.136;5.420;2023-08-31T03:03:51;100930.84;;;11.86;100.00
72061;BME280;59925;52.136;5.420;2023-08-31T03:06:18;100923.09;;;11.85;100.00
72061;BME280;59925;52.136;5.420;2023-08-31T03:08:44;100922.00;;;11.86;100.00
72061;BME280;59925;52.136;5.420;2023-08-31T03:11:11;100940.53;;;11.87;100.00
72061;BME280;59925;52.136;5.420;2023-08-31T03:13:40;100937.03;;;11.87;100.00
72061;BME280;59925;52.136;5.420;2023-08-31T03:16:07;100936.50;;;11.85;100.00
72061;BME280;59925;52.136;5.420;2023-08-31T03:18:34;100927.38;;;11.86;100.00
72061;BME280;59925;52.136;5.420;2023-08-31T03:21:00;100930.84;;;11.86;100.00
72061;BME280;59925;52.136;5.420;2023-08-31T03:23:28;100938.41;;;11.84;100.00
72061;BME280;59925;52.136;5.420;2023-08-31T03:25:55;100938.66;;;11.88;100.00
72061;BME280;59925;52.136;5.420;2023-08-31T03:28:21;100937.31;;;11.85;100.00
72061;BME280;59925;52.136;5.420;2023-08-31T03:30:55;100942.72;;;11.80;100.00
72061;BME280;59925;52.136;5.420;2023-08-31T03:33:22;100930.06;;;11.80;100.00
72061;BME280;59925;52.136;5.420;2023-08-31T03:35:49;100933.34;;;11.77;100.00
72061;BME280;59925;52.136;5.420;2023-08-31T03:38:15;100925.81;;;11.74;100.00
72061;BME280;59925;52.136;5.420;2023-08-31T03:40:42;100929.34;;;11.70;100.00
72061;BME280;59925;52.136;5.420;2023-08-31T03:43:08;100932.31;;;11.63;100.00
72061;BME280;59925;52.136;5.420;2023-08-31T03:45:36;100923.44;;;11.62;100.00
72061;BME280;59925;52.136;5.420;2023-08-31T03:48:02;100936.84;;;11.62;100.00
72061;BME280;59925;52.136;5.420;2023-08-31T03:50:29;100949.75;;;11.65;100.00
72061;BME280;59925;52.136;5.420;2023-08-31T03:52:56;100955.38;;;11.69;100.00
72061;BME280;59925;52.136;5.420;2023-08-31T03:55:22;100954.28;;;11.70;100.00
72061;BME280;59925;52.136;5.420;2023-08-31T03:57:49;100947.59;;;11.68;100.00
72061;BME280;59925;52.136;5.420;2023-08-31T04:00:16;100950.03;;;11.64;100.00
72061;BME280;59925;52.136;5.420;2023-08-31T04:02:43;100946.28;;;11.60;100.00
72061;BME280;59925;52.136;5.420;2023-08-31T04:05:11;100948.41;;;11.63;100.00
72061;BME280;59925;52.136;5.420;2023-08-31T04:07:37;100953.78;;;11.63;100.00
72061;BME280;59925;52.136;5.420;2023-08-31T04:10:04;100953.22;;;11.66;100.00
72061;BME280;59925;52.136;5.420;2023-08-31T04:12:31;100951.63;;;11.65;100.00
72061;BME280;59925;52.136;5.420;2023-08-31T04:14:58;100953.78;;;11.63;100.00
72061;BME280;59925;52.136;5.420;2023-08-31T04:17:24;100948.69;;;11.61;100.00
72061;BME280;59925;52.136;5.420;2023-08-31T04:19:51;100948.69;;;11.61;100.00
72061;BME280;59925;52.136;5.420;2023-08-31T04:22:17;100949.75;;;11.60;100.00
72061;BME280;59925;52.136;5.420;2023-08-31T04:24:44;100948.69;;;11.61;100.00
72061;BME280;59925;52.136;5.420;2023-08-31T04:27:10;100956.47;;;11.63;100.00
72061;BME280;59925;52.136;5.420;2023-08-31T04:29:37;100955.66;;;11.62;100.00
72061;BME280;59925;52.136;5.420;2023-08-31T04:32:04;100954.28;;;11.65;100.00
72061;BME280;59925;52.136;5.420;2023-08-31T04:34:31;100962.34;;;11.65;100.00
72061;BME280;59925;52.136;5.420;2023-08-31T04:36:58;100965.84;;;11.65;100.00
72061;BME280;59925;52.136;5.420;2023-08-31T04:39:25;100970.41;;;11.65;100.00
72061;BME280;59925;52.136;5.420;2023-08-31T04:41:53;100964.53;;;11.63;100.00
72061;BME280;59925;52.136;5.420;2023-08-31T04:44:19;100980.06;;;11.66;100.00
72061;BME280;59925;52.136;5.420;2023-08-31T04:46:46;100972.31;;;11.70;100.00
72061;BME280;59925;52.136;5.420;2023-08-31T04:49:12;100978.47;;;11.70;100.00
72061;BME280;59925;52.136;5.420;2023-08-31T04:51:39;100990.81;;;11.71;100.00
72061;BME280;59925;52.136;5.420;2023-08-31T04:54:07;100987.59;;;11.74;100.00
72061;BME280;59925;52.136;5.420;2023-08-31T04:56:34;100994.81;;;11.74;100.00
72061;BME280;59925;52.136;5.420;2023-08-31T04:59:01;100997.25;;;11.75;100.00
72061;BME280;59925;52.136;5.420;2023-08-31T05:01:29;101002.63;;;11.75;100.00
72061;BME280;59925;52.136;5.420;2023-08-31T05:03:55;101008.78;;;11.76;100.00
72061;BME280;59925;52.136;5.420;2023-08-31T05:06:22;101008.53;;;11.77;100.00
72061;BME280;59925;52.136;5.420;2023-08-31T05:08:49;101017.38;;;11.78;100.00
72061;BME280;59925;52.136;5.420;2023-08-31T05:11:15;101012.56;;;11.80;100.00
72061;BME280;59925;52.136;5.420;2023-08-31T05:13:42;101014.41;;;11.79;100.00
72061;BME280;59925;52.136;5.420;2023-08-31T05:16:09;101013.38;;;11.75;100.00
72061;BME280;59925;52.136;5.420;2023-08-31T05:18:36;101012.28;;;11.76;100.00
72061;BME280;59925;52.136;5.420;2023-08-31T05:21:03;101012.28;;;11.76;100.00
72061;BME280;59925;52.136;5.420;2023-08-31T05:23:30;101020.59;;;11.80;100.00
72061;BME280;59925;52.136;5.420;2023-08-31T05:25:57;101020.56;;;11.85;100.00
72061;BME280;59925;52.136;5.420;2023-08-31T05:28:23;101020.84;;;11.89;100.00
72061;BME280;59925;52.136;5.420;2023-08-31T05:30:52;101030.53;;;11.90;100.00
72061;BME280;59925;52.136;5.420;2023-08-31T05:33:19;101029.16;;;11.92;100.00
72061;BME280;59925;52.136;5.420;2023-08-31T05:35:46;101033.47;;;11.99;100.00
72061;BME280;59925;52.136;5.420;2023-08-31T05:38:12;101023.78;;;12.08;100.00
72061;BME280;59925;52.136;5.420;2023-08-31T05:40:39;101021.88;;;12.14;100.00
72061;BME280;59925;52.136;5.420;2023-08-31T05:43:05;101024.00;;;12.17;100.00
72061;BME280;59925;52.136;5.420;2023-08-31T05:45:33;101030.72;;;12.19;100.00
72061;BME280;59925;52.136;5.420;2023-08-31T05:48:00;101033.66;;;12.18;100.00
72061;BME280;59925;52.136;5.420;2023-08-31T05:50:27;101037.66;;;12.25;100.00
72061;BME280;59925;52.136;5.420;2023-08-31T05:52:55;101038.47;;;12.26;100.00
72061;BME280;59925;52.136;5.420;2023-08-31T05:55:21;101038.19;;;12.27;100.00
72061;BME280;59925;52.136;5.420;2023-08-31T05:57:48;101048.38;;;12.36;100.00
72061;BME280;59925;52.136;5.420;2023-08-31T06:00:15;101056.16;;;12.43;100.00
72061;BME280;59925;52.136;5.420;2023-08-31T06:02:43;101062.03;;;12.45;100.00
72061;BME280;59925;52.136;5.420;2023-08-31T06:05:11;101069.84;;;12.46;100.00
72061;BME280;59925;52.136;5.420;2023-08-31T06:07:43;101073.06;;;12.43;100.00
72061;BME280;59925;52.136;5.420;2023-08-31T06:10:10;101071.75;;;12.40;100.00
72061;BME280;59925;52.136;5.420;2023-08-31T06:12:37;101076.06;;;12.36;100.00
72061;BME280;59925;52.136;5.420;2023-08-31T06:15:04;101065.84;;;12.33;100.00
72061;BME280;59925;52.136;5.420;2023-08-31T06:17:31;101064.25;;;12.32;100.00
72061;BME280;59925;52.136;5.420;2023-08-31T06:19:57;101060.50;;;12.28;100.00
72061;BME280;59925;52.136;5.420;2023-08-31T06:22:24;101067.47;;;12.34;100.00
72061;BME280;59925;52.136;5.420;2023-08-31T06:24:50;101066.13;;;12.37;100.00
72061;BME280;59925;52.136;5.420;2023-08-31T06:27:18;101071.75;;;12.40;100.00
72061;BME280;59925;52.136;5.420;2023-08-31T06:29:45;101069.31;;;12.44;100.00
72061;BME280;59925;52.136;5.420;2023-08-31T06:32:11;101073.31;;;12.52;100.00
72061;BME280;59925;52.136;5.420;2023-08-31T06:34:37;101063.88;;;12.54;100.00
72061;BME280;59925;52.136;5.420;2023-08-31T06:37:04;101060.09;;;12.55;100.00
72061;BME280;59925;52.136;5.420;2023-08-31T06:39:31;101066.84;;;12.53;100.00
72061;BME280;59925;52.136;5.420;2023-08-31T06:41:59;101071.97;;;12.49;100.00
72061;BME280;59925;52.136;5.420;2023-08-31T06:44:27;101065.25;;;12.47;100.00
72061;BME280;59925;52.136;5.420;2023-08-31T06:46:55;101076.00;;;12.47;100.00
72061;BME280;59925;52.136;5.420;2023-08-31T06:49:22;101057.19;;;12.47;100.00
72061;BME280;59925;52.136;5.420;2023-08-31T06:51:49;101070.34;;;12.53;100.00
72061;BME280;59925;52.136;5.420;2023-08-31T06:54:16;101067.03;;;12.72;100.00
72061;BME280;59925;52.136;5.420;2023-08-31T06:56:42;101080.06;;;12.94;100.00
72061;BME280;59925;52.136;5.420;2023-08-31T06:59:09;101076.97;;;13.16;100.00
72061;BME280;59925;52.136;5.420;2023-08-31T07:01:35;101091.66;;;13.29;100.00
72061;BME280;59925;52.136;5.420;2023-08-31T07:04:02;101082.53;;;13.25;100.00
72061;BME280;59925;52.136;5.420;2023-08-31T07:06:33;101087.06;;;13.30;100.00
72061;BME280;59925;52.136;5.420;2023-08-31T07:08:59;101097.06;;;13.24;100.00
72061;BME280;59925;52.136;5.420;2023-08-31T07:11:26;101087.59;;;13.32;100.00
72061;BME280;59925;52.136;5.420;2023-08-31T07:13:53;101102.09;;;13.41;100.00
72061;BME280;59925;52.136;5.420;2023-08-31T07:16:20;101100.09;;;13.52;100.00
72061;BME280;59925;52.136;5.420;2023-08-31T07:18:47;101105.22;;;13.54;100.00
72061;BME280;59925;52.136;5.420;2023-08-31T07:21:14;101095.91;;;13.41;100.00
72061;BME280;59925;52.136;5.420;2023-08-31T07:23:40;101097.50;;;13.37;100.00
72061;BME280;59925;52.136;5.420;2023-08-31T07:26:07;101109.88;;;13.43;100.00
72061;BME280;59925;52.136;5.420;2023-08-31T07:28:34;101110.66;;;13.48;100.00
72061;BME280;59925;52.136;5.420;2023-08-31T07:31:05;101113.63;;;13.47;100.00
72061;BME280;59925;52.136;5.420;2023-08-31T07:33:33;101123.06;;;13.44;100.00
72061;BME280;59925;52.136;5.420;2023-08-31T07:36:02;101125.50;;;13.46;100.00
72061;BME280;59925;52.136;5.420;2023-08-31T07:38:30;101119.53;;;13.49;100.00
72061;BME280;59925;52.136;5.420;2023-08-31T07:40:57;101111.13;;;13.56;100.00
72061;BME280;59925;52.136;5.420;2023-08-31T07:43:27;101112.75;;;13.86;100.00
72061;BME280;59925;52.136;5.420;2023-08-31T07:45:54;101116.97;;;13.92;100.00
72061;BME280;59925;52.136;5.420;2023-08-31T07:48:20;101128.84;;;13.91;100.00
72061;BME280;59925;52.136;5.420;2023-08-31T07:50:47;101130.69;;;13.96;100.00
72061;BME280;59925;52.136;5.420;2023-08-31T07:53:15;101134.81;;;13.88;100.00
72061;BME280;59925;52.136;5.420;2023-08-31T07:55:42;101133.53;;;13.81;100.00
72061;BME280;59925;52.136;5.420;2023-08-31T07:58:08;101132.16;;;13.83;100.00
72061;BME280;59925;52.136;5.420;2023-08-31T08:00:35;101126.88;;;13.73;100.00
72061;BME280;59925;52.136;5.420;2023-08-31T08:03:01;101132.78;;;13.75;100.00
72061;BME280;59925;52.136;5.420;2023-08-31T08:05:28;101136.25;;;13.81;100.00
72061;BME280;59925;52.136;5.420;2023-08-31T08:07:54;101138.59;;;13.87;100.00
72061;BME280;59925;52.136;5.420;2023-08-31T08:10:21;101146.50;;;14.03;100.00
72061;BME280;59925;52.136;5.420;2023-08-31T08:12:47;101153.53;;;14.04;100.00
72061;BME280;59925;52.136;5.420;2023-08-31T08:15:14;101143.78;;;14.08;100.00
72061;BME280;59925;52.136;5.420;2023-08-31T08:17:40;101142.00;;;14.22;100.00
72061;BME280;59925;52.136;5.420;2023-08-31T08:20:07;101150.50;;;14.35;100.00
72061;BME280;59925;52.136;5.420;2023-08-31T08:22:35;101147.69;;;14.45;100.00
72061;BME280;59925;52.136;5.420;2023-08-31T08:25:02;101149.13;;;14.62;100.00
72061;BME280;59925;52.136;5.420;2023-08-31T08:27:29;101160.09;;;14.70;100.00
72061;BME280;59925;52.136;5.420;2023-08-31T08:29:56;101166.38;;;14.61;100.00
72061;BME280;59925;52.136;5.420;2023-08-31T08:32:22;101164.44;;;14.66;100.00
72061;BME280;59925;52.136;5.420;2023-08-31T08:34:50;101162.50;;;14.72;100.00
72061;BME280;59925;52.136;5.420;2023-08-31T08:37:17;101163.59;;;14.71;100.00
72061;BME280;59925;52.136;5.420;2023-08-31T08:39:48;101160.47;;;14.59;100.00
72061;BME280;59925;52.136;5.420;2023-08-31T08:42:17;101164.06;;;14.78;100.00
72061;BME280;59925;52.136;5.420;2023-08-31T08:44:44;101168.34;;;14.79;100.00
72061;BME280;59925;52.136;5.420;2023-08-31T08:47:12;101166.19;;;14.81;100.00
72061;BME280;59925;52.136;5.420;2023-08-31T08:49:39;101171.44;;;14.92;100.00
72061;BME280;59925;52.136;5.420;2023-08-31T08:52:06;101169.97;;;14.99;100.00
72061;BME280;59925;52.136;5.420;2023-08-31T08:54:33;101171.06;;;15.37;100.00
72061;BME280;59925;52.136;5.420;2023-08-31T08:57:04;101177.28;;;15.70;100.00
72061;BME280;59925;52.136;5.420;2023-08-31T08:59:31;101177.84;;;16.19;100.00
72061;BME280;59925;52.136;5.420;2023-08-31T09:01:58;101177.53;;;16.49;100.00
72061;BME280;59925;52.136;5.420;2023-08-31T09:04:25;101172.53;;;16.42;100.00
72061;BME280;59925;52.136;5.420;2023-08-31T09:06:51;101170.59;;;16.43;99.72
72061;BME280;59925;52.136;5.420;2023-08-31T09:09:18;101169.09;;;16.64;98.94
72061;BME280;59925;52.136;5.420;2023-08-31T09:11:45;101172.19;;;16.99;99.50
72061;BME280;59925;52.136;5.420;2023-08-31T09:14:18;101176.84;;;17.22;98.36
72061;BME280;59925;52.136;5.420;2023-08-31T09:16:49;101172.09;;;17.27;97.48
72061;BME280;59925;52.136;5.420;2023-08-31T09:19:23;101176.00;;;17.21;96.56
72061;BME280;59925;52.136;5.420;2023-08-31T09:21:51;101175.75;;;17.09;94.40
72061;BME280;59925;52.136;5.420;2023-08-31T09:24:18;101173.72;;;17.14;95.18
72061;BME280;59925;52.136;5.420;2023-08-31T09:26:47;101165.13;;;17.58;95.64
72061;BME280;59925;52.136;5.420;2023-08-31T09:29:14;101170.38;;;17.54;94.87
72061;BME280;59925;52.136;5.420;2023-08-31T09:31:42;101163.59;;;17.43;94.51
72061;BME280;59925;52.136;5.420;2023-08-31T09:34:11;101169.91;;;17.15;96.03
72061;BME280;59925;52.136;5.420;2023-08-31T09:36:38;101179.81;;;16.97;98.13
72061;BME280;59925;52.136;5.420;2023-08-31T09:39:08;101181.91;;;16.87;98.94
72061;BME280;59925;52.136;5.420;2023-08-31T09:41:52;101185.50;;;16.82;99.28
72061;BME280;59925;52.136;5.420;2023-08-31T09:44:19;101181.31;;;16.76;99.79
72061;BME280;59925;52.136;5.420;2023-08-31T09:46:46;101186.59;;;17.09;99.32
72061;BME280;59925;52.136;5.420;2023-08-31T09:49:14;101190.22;;;17.41;98.39
72061;BME280;59925;52.136;5.420;2023-08-31T09:51:45;101176.66;;;17.64;97.51
72061;BME280;59925;52.136;5.420;2023-08-31T09:54:18;101166.59;;;17.87;97.27
72061;BME280;59925;52.136;5.420;2023-08-31T09:56:46;101165.59;;;18.05;95.82
72061;BME280;59925;52.136;5.420;2023-08-31T09:59:15;101170.13;;;18.19;94.72
72061;BME280;59925;52.136;5.420;2023-08-31T10:01:44;101174.59;;;18.23;91.82
72061;BME280;59925;52.136;5.420;2023-08-31T10:04:11;101172.41;;;18.34;92.30
72061;BME280;59925;52.136;5.420;2023-08-31T10:06:39;101173.75;;;18.46;91.84
72061;BME280;59925;52.136;5.420;2023-08-31T10:09:06;101174.22;;;18.57;90.16
72061;BME280;59925;52.136;5.420;2023-08-31T10:11:37;101172.94;;;18.54;85.96
72061;BME280;59925;52.136;5.420;2023-08-31T10:14:04;101168.81;;;18.65;86.26
72061;BME280;59925;52.136;5.420;2023-08-31T10:16:31;101169.31;;;18.67;82.55
72061;BME280;59925;52.136;5.420;2023-08-31T10:18:58;101165.06;;;19.02;85.07
72061;BME280;59925;52.136;5.420;2023-08-31T10:21:25;101161.09;;;19.17;83.00
72061;BME280;59925;52.136;5.420;2023-08-31T10:23:52;101167.78;;;19.28;81.27
72061;BME280;59925;52.136;5.420;2023-08-31T10:26:26;101167.72;;;19.63;81.32
72061;BME280;59925;52.136;5.420;2023-08-31T10:28:53;101170.09;;;19.91;76.52
72061;BME280;59925;52.136;5.420;2023-08-31T10:31:20;101168.63;;;20.02;71.90
72061;BME280;59925;52.136;5.420;2023-08-31T10:36:44;101171.81;;;20.04;71.74
72061;BME280;59925;52.136;5.420;2023-08-31T10:39:18;101171.69;;;19.92;70.98
72061;BME280;59925;52.136;5.420;2023-08-31T10:41:56;101169.84;;;19.49;69.61
72061;BME280;59925;52.136;5.420;2023-08-31T10:44:26;101181.19;;;19.51;69.90
72061;BME280;59925;52.136;5.420;2023-08-31T10:46:53;101180.69;;;19.66;69.68
72061;BME280;59925;52.136;5.420;2023-08-31T10:49:22;101174.00;;;19.64;67.42
72061;BME280;59925;52.136;5.420;2023-08-31T10:51:56;101182.25;;;19.85;68.66
72061;BME280;59925;52.136;5.420;2023-08-31T10:54:33;101169.44;;;19.85;66.54
72061;BME280;59925;52.136;5.420;2023-08-31T10:57:05;101177.31;;;19.87;62.35
72061;BME280;59925;52.136;5.420;2023-08-31T11:05:14;101172.16;;;20.33;60.96
72061;BME280;59925;52.136;5.420;2023-08-31T11:07:42;101173.72;;;20.43;61.65
72061;BME280;59925;52.136;5.420;2023-08-31T11:10:12;101172.50;;;20.61;60.87
72061;BME280;59925;52.136;5.420;2023-08-31T11:12:40;101176.66;;;20.59;58.81
72061;BME280;59925;52.136;5.420;2023-08-31T11:15:07;101182.53;;;20.70;58.71
72061;BME280;59925;52.136;5.420;2023-08-31T11:17:34;101173.41;;;20.65;56.58
72061;BME280;59925;52.136;5.420;2023-08-31T11:20:01;101184.34;;;20.35;57.39
72061;BME280;59925;52.136;5.420;2023-08-31T11:22:31;101185.09;;;20.45;55.19
72061;BME280;59925;52.136;5.420;2023-08-31T11:24:59;101184.75;;;20.46;55.08
72061;BME280;59925;52.136;5.420;2023-08-31T11:27:26;101185.34;;;20.22;54.99
72061;BME280;59925;52.136;5.420;2023-08-31T11:29:52;101190.34;;;20.50;55.14
72061;BME280;59925;52.136;5.420;2023-08-31T11:32:19;101187.84;;;20.75;52.86
72061;BME280;59925;52.136;5.420;2023-08-31T11:34:45;101188.22;;;20.86;53.00
72061;BME280;59925;52.136;5.420;2023-08-31T11:37:12;101179.53;;;20.92;53.28
72061;BME280;59925;52.136;5.420;2023-08-31T11:39:49;101188.09;;;21.24;54.28
72061;BME280;59925;52.136;5.420;2023-08-31T11:42:16;101191.47;;;21.42;51.80
72061;BME280;59925;52.136;5.420;2023-08-31T11:44:53;101186.47;;;21.66;52.80
72061;BME280;59925;52.136;5.420;2023-08-31T11:47:20;101192.41;;;21.68;50.79
72061;BME280;59925;52.136;5.420;2023-08-31T11:49:47;101187.41;;;21.70;49.76
72061;BME280;59925;52.136;5.420;2023-08-31T11:52:15;101190.78;;;21.67;47.12
72061;BME280;59925;52.136;5.420;2023-08-31T11:54:42;101187.19;;;21.54;48.38
72061;BME280;59925;52.136;5.420;2023-08-31T11:57:10;101191.00;;;21.62;48.77
72061;BME280;59925;52.136;5.420;2023-08-31T11:59:37;101187.97;;;21.76;49.92
72061;BME280;59925;52.136;5.420;2023-08-31T12:02:08;101182.66;;;21.92;49.08
72061;BME280;59925;52.136;5.420;2023-08-31T12:04:45;101180.72;;;22.04;50.27
72061;BME280;59925;52.136;5.420;2023-08-31T12:07:21;101179.28;;;22.07;48.43
72061;BME280;59925;52.136;5.420;2023-08-31T12:09:48;101178.56;;;21.98;47.29
72061;BME280;59925;52.136;5.420;2023-08-31T12:12:19;101189.03;;;21.96;46.89
72061;BME280;59925;52.136;5.420;2023-08-31T12:14:46;101177.00;;;22.09;48.38
72061;BME280;59925;52.136;5.420;2023-08-31T12:17:13;101168.00;;;22.33;47.01
72061;BME280;59925;52.136;5.420;2023-08-31T12:19:40;101177.50;;;22.48;47.24
72061;BME280;59925;52.136;5.420;2023-08-31T12:22:07;101182.59;;;22.62;48.06
72061;BME280;59925;52.136;5.420;2023-08-31T12:24:40;101173.25;;;22.63;45.57
72061;BME280;59925;52.136;5.420;2023-08-31T12:27:08;101179.06;;;22.74;46.78
72061;BME280;59925;52.136;5.420;2023-08-31T12:29:35;101183.38;;;22.75;46.74
72061;BME280;59925;52.136;5.420;2023-08-31T12:32:01;101187.25;;;22.74;46.49
72061;BME280;59925;52.136;5.420;2023-08-31T12:34:29;101193.50;;;22.75;45.93
72061;BME280;59925;52.136;5.420;2023-08-31T12:36:57;101184.63;;;22.28;47.51
72061;BME280;59925;52.136;5.420;2023-08-31T12:39:26;101190.00;;;22.62;47.66
72061;BME280;59925;52.136;5.420;2023-08-31T12:41:53;101194.13;;;22.96;47.03
72061;BME280;59925;52.136;5.420;2023-08-31T12:44:24;101197.56;;;22.93;45.77
72061;BME280;59925;52.136;5.420;2023-08-31T12:46:52;101192.72;;;22.74;46.45
72061;BME280;59925;52.136;5.420;2023-08-31T12:49:18;101193.16;;;22.89;46.15
72061;BME280;59925;52.136;5.420;2023-08-31T12:51:46;101206.25;;;22.71;45.75
72061;BME280;59925;52.136;5.420;2023-08-31T12:54:13;101199.28;;;22.86;46.72
72061;BME280;59925;52.136;5.420;2023-08-31T12:56:40;101198.22;;;23.03;46.17
72061;BME280;59925;52.136;5.420;2023-08-31T12:59:07;101203.09;;;23.09;46.98